Aircraft
UPR1004 PR-ACC A320
SBAR
Aracaju - Santa Maria International Airport
SBRP
Leite Lopes Airport
Pilot:: Jair
Aircraft:: A320neo V2
Alternate: SBSR
Network: ivao
FLIGHT DETAILS
Distance: 868nm Duration 02h 35m
Cruise Speed: Flight Level: 35000
Validation: Validated Type Charter
Flight Fuel
ZFW: 42252
Block Fuel/Initial FOB: 12430
Flight Fuel: 6843
Cargo
Passengers: 145
Cargo: 13100
ROUTE
ROUTE: sbar dct sbrp
REMARKS:
DATE
Date: 26-07-27
Departure Time: 2145
Cargo: 13100
FLIGHT DETAILS
Crashed: No
Validator Comments: Validado por Rafael
Flight Rating: 100
LANDING ANALYSIS
Landing wind: 111º/0 kt
Landing heading: 184º
Landing VS:: -283 ft/min
Landing IAS:: 127 kt
Landing Force G: 1 G
Landing Bank: -1
Landing Pitch: -2
Landing Flaps: 100
Navigation Lights: ON
Landing Lights: ON
Beacon Lights: ON
Strobe Lights: ON
viserfly

ALTITUDE CHART

viserfly

MAIN EVENTS

DATE EVENT IAS ALTITUDE
2026-07-26 21:44:26 FLYacars version 1.3.5 0 35
2026-07-26 21:44:26 Aircraft boarding in progress 0 35
2026-07-26 21:44:26 FLAPS 25% 0 35
2026-07-26 21:44:26 Navigation Lights ON 0 35
2026-07-26 21:44:26 Beacon Lights ON 0 35
2026-07-26 21:44:26 Strobe Lights ON 0 35
2026-07-26 21:44:26 Landing Lights ON 0 35
2026-07-26 21:44:26 Taxi Lights ON 0 35
2026-07-26 21:44:26 Starting Engine 2 0 35
2026-07-26 21:44:26 Starting Engine 1 0 35
2026-07-26 21:45:35 Aircraft taxiing to runway 0 35
2026-07-26 21:45:59 Detected Take-off roll, HDG 295, IAS 149kt, GS 163kt, G-force 1.2g, Pitch -5.2deg, Bank -5.1deg, Wind 140/12kt, Temp 25°C 149 39
2026-07-26 21:45:59 Airborne 149 39
2026-07-26 21:46:04 Gear UP, IAS 170kt, GS 181kt, ALT 125ft AGL 170 151
2026-07-26 21:46:04 Gear DOWN, IAS 170kt, GS 181kt, ALT 128ft AGL 170 153
2026-07-26 21:46:09 Taxi Lights OFF 181 306
2026-07-26 21:46:15 FLAPS 0% 191kt, ALT 594ft 191 594
2026-07-26 21:46:20 Gear UP, IAS 199kt, GS 214kt, ALT 749ft AGL 199 766
2026-07-26 21:51:08 Landing Lights OFF 263 10658
2026-07-26 22:03:37 Aircraft on Top Of Climb at 35252ft, IAS 262kt, GS 430kt, HDG 246deg, TAT -41deg, WIND 290/59kt 262 35252
2026-07-26 23:25:09 Aircraft on Top Of Descent at 34499ft, IAS 261kt, GS 386kt, HDG 255deg, TAT -38deg, WIND 253/64kt 261 34499
2026-07-26 23:48:05 Simulator Paused 250 11671
2026-07-26 23:48:05 Simulator Un-Paused 250 11669
2026-07-26 23:56:36 Landing Lights ON 221 10259
2026-07-27 00:03:00 FLAPS 25% 177kt, ALT 5239ft 177 5239
2026-07-27 00:03:01 FLAPS 50% 177kt, ALT 5239ft 177 5239
2026-07-27 00:03:01 FLAPS 75% 177kt, ALT 5239ft 177 5239
2026-07-27 00:03:01 FLAPS 100% 177kt, ALT 5239ft 177 5239
2026-07-27 00:03:03 Gear DOWN, IAS 176kt, GS 193kt, ALT 2647ft AGL 176 5243
2026-07-27 00:03:09 Taxi Lights ON 174 5277
2026-07-27 00:21:12 Landed at destination with a landing rate of -283fpm, G-force 1.0g, Pitch -2.0deg, Bank -0.6deg, HDG 184deg, IAS 127kt, GS 132kt, Wind 111/00kt, Temp 17°C 127 1833
2026-07-27 00:21:12 Incorrect altimeter settings on landing 127 1833
2026-07-27 00:21:34 Aircraft taxiing to apron 24 1830
2026-07-27 00:21:37 FLAPS 75% 6 1830
2026-07-27 00:21:37 FLAPS 25% 3 1830
2026-07-27 00:21:37 FLAPS 0% 3 1830
2026-07-27 00:23:11 Landing Lights OFF 15 1830
2026-07-27 00:27:17 Taxi Lights OFF 0 1830
2026-07-27 00:28:31 Strobe Lights OFF 0 1830
2026-07-27 00:28:35 Beacon Lights OFF 0 1830
2026-07-27 00:28:41 Aircraft at gate/stand, ground services are moving into position, disembarkation has begun. Remaining FOB 5587kg FLYacars v1.3.5 0 1830
viserfly

ACARS DATA

DATE IAS GS ALTITUDE FUEL CONSUMED OAT FLIGHT STATUS
2026-07-26 21:44:56 0 0 35 9 25 BOARDING
2026-07-26 21:45:26 0 0 35 15 25 BOARDING
2026-07-26 21:45:56 133 145 33 61 25 TAKEOFF
2026-07-26 21:46:26 217 233 944 117 22 TAKEOFF
2026-07-26 21:46:56 229 245 1944 154 20 INITIAL CLIMB
2026-07-26 21:47:26 248 266 2990 201 18 CLIMB
2026-07-26 21:47:56 248 258 4044 243 17 CLIMB
2026-07-26 21:48:26 248 260 5092 285 15 CLIMB
2026-07-26 21:48:56 249 263 6142 325 13 CLIMB
2026-07-26 21:49:26 247 266 7191 366 12 CLIMB
2026-07-26 21:49:56 247 272 8236 407 11 CLIMB
2026-07-26 21:50:26 247 278 9284 448 9 CLIMB
2026-07-26 21:50:56 258 298 10266 491 8 CLIMB
2026-07-26 21:51:26 279 327 11262 535 7 CLIMB
2026-07-26 21:51:56 280 334 12262 575 6 CLIMB
2026-07-26 21:52:26 280 341 13259 613 4 CLIMB
2026-07-26 21:52:56 280 348 14258 651 3 CLIMB
2026-07-26 21:53:26 280 355 15256 689 1 CLIMB
2026-07-26 21:53:56 280 361 16256 726 0 CLIMB
2026-07-26 21:54:26 280 367 17255 762 -2 CLIMB
2026-07-26 21:54:56 280 373 18252 799 -4 CLIMB
2026-07-26 21:55:26 280 381 19253 836 -6 CLIMB
2026-07-26 21:55:56 282 385 20253 873 -8 CLIMB
2026-07-26 21:56:26 282 388 21253 908 -10 CLIMB
2026-07-26 21:56:56 281 391 22253 943 -13 CLIMB
2026-07-26 21:57:26 281 394 23250 976 -15 CLIMB
2026-07-26 21:57:56 281 399 24248 1008 -17 CLIMB
2026-07-26 21:58:26 280 403 25249 1041 -19 CLIMB
2026-07-26 21:58:56 279 410 26247 1073 -21 CLIMB
2026-07-26 21:59:26 279 418 27247 1105 -23 CLIMB
2026-07-26 21:59:56 281 425 28247 1135 -25 CLIMB
2026-07-26 22:00:26 279 430 29246 1165 -27 CLIMB
2026-07-26 22:00:56 277 433 30244 1193 -28 CLIMB
2026-07-26 22:01:26 272 434 31240 1219 -30 CLIMB
2026-07-26 22:01:56 271 434 32238 1247 -33 CLIMB
2026-07-26 22:02:26 268 433 33230 1274 -36 CLIMB
2026-07-26 22:02:56 265 431 34220 1300 -38 CLIMB
2026-07-26 22:03:26 262 430 35138 1324 -40 CLIMB
2026-07-26 22:03:56 261 428 35270 1343 -41 ENROUTE
2026-07-26 22:04:26 261 427 35266 1361 -41 ENROUTE
2026-07-26 22:04:56 261 427 35267 1379 -41 ENROUTE
2026-07-26 22:05:26 261 427 35261 1396 -41 ENROUTE
2026-07-26 22:05:56 261 426 35260 1413 -41 ENROUTE
2026-07-26 22:06:26 261 426 35264 1432 -41 ENROUTE
2026-07-26 22:06:56 260 426 35264 1450 -41 ENROUTE
2026-07-26 22:07:26 260 426 35261 1469 -41 ENROUTE
2026-07-26 22:07:56 260 426 35248 1486 -41 ENROUTE
2026-07-26 22:08:26 260 426 35251 1505 -41 ENROUTE
2026-07-26 22:08:56 260 426 35250 1522 -41 ENROUTE
2026-07-26 22:09:26 260 426 35249 1540 -41 ENROUTE
2026-07-26 22:09:56 260 426 35249 1558 -41 ENROUTE
2026-07-26 22:10:26 262 425 35246 1577 -40 ENROUTE
2026-07-26 22:10:56 261 422 35246 1595 -40 ENROUTE
2026-07-26 22:11:26 260 421 35246 1612 -40 ENROUTE
2026-07-26 22:11:56 261 421 35246 1631 -40 ENROUTE
2026-07-26 22:12:26 260 421 35246 1649 -40 ENROUTE
2026-07-26 22:12:56 260 421 35246 1667 -40 ENROUTE
2026-07-26 22:13:26 261 419 35230 1684 -40 ENROUTE
2026-07-26 22:13:56 260 418 35231 1702 -40 ENROUTE
2026-07-26 22:14:26 260 418 35231 1721 -40 ENROUTE
2026-07-26 22:14:56 260 418 35231 1739 -40 ENROUTE
2026-07-26 22:15:26 260 418 35231 1757 -40 ENROUTE
2026-07-26 22:15:56 260 418 35221 1775 -40 ENROUTE
2026-07-26 22:16:26 260 417 35218 1792 -40 ENROUTE
2026-07-26 22:16:56 260 417 35220 1811 -40 ENROUTE
2026-07-26 22:17:26 260 417 35225 1828 -40 ENROUTE
2026-07-26 22:17:55 260 417 35225 1847 -40 ENROUTE
2026-07-26 22:18:25 261 417 35212 1865 -40 ENROUTE
2026-07-26 22:18:55 260 416 35208 1883 -40 ENROUTE
2026-07-26 22:19:25 260 416 35206 1901 -40 ENROUTE
2026-07-26 22:19:55 260 416 35212 1919 -40 ENROUTE
2026-07-26 22:20:25 260 416 35212 1938 -40 ENROUTE
2026-07-26 22:20:55 261 416 35209 1956 -39 ENROUTE
2026-07-26 22:21:25 260 414 35199 1974 -39 ENROUTE
2026-07-26 22:21:55 260 414 35198 1992 -39 ENROUTE
2026-07-26 22:22:25 260 414 35196 2010 -39 ENROUTE
2026-07-26 22:22:55 260 414 35195 2029 -39 ENROUTE
2026-07-26 22:23:25 260 414 35195 2047 -39 ENROUTE
2026-07-26 22:23:55 260 412 35186 2063 -39 ENROUTE
2026-07-26 22:24:25 260 412 35186 2082 -39 ENROUTE
2026-07-26 22:24:55 260 412 35185 2101 -39 ENROUTE
2026-07-26 22:25:25 260 412 35187 2118 -39 ENROUTE
2026-07-26 22:25:55 260 412 35183 2137 -39 ENROUTE
2026-07-26 22:26:25 260 412 35180 2155 -39 ENROUTE
2026-07-26 22:26:55 260 412 35179 2172 -39 ENROUTE
2026-07-26 22:27:25 260 412 35179 2190 -39 ENROUTE
2026-07-26 22:27:55 260 412 35178 2209 -39 ENROUTE
2026-07-26 22:28:25 260 412 35179 2227 -39 ENROUTE
2026-07-26 22:28:55 260 412 35180 2245 -39 ENROUTE
2026-07-26 22:29:25 260 409 35178 2263 -39 ENROUTE
2026-07-26 22:29:55 259 403 35178 2282 -40 ENROUTE
2026-07-26 22:30:25 260 402 35187 2299 -40 ENROUTE
2026-07-26 22:30:55 258 400 35184 2318 -40 ENROUTE
2026-07-26 22:31:25 250 401 35185 2332 -39 ENROUTE
2026-07-26 22:31:55 248 433 35172 2350 -39 ENROUTE
2026-07-26 22:32:25 249 409 35165 2367 -39 ENROUTE
2026-07-26 22:32:55 249 400 35166 2385 -39 ENROUTE
2026-07-26 22:33:25 249 391 35169 2403 -39 ENROUTE
2026-07-26 22:33:55 250 386 35171 2421 -39 ENROUTE
2026-07-26 22:34:25 250 385 35151 2439 -39 ENROUTE
2026-07-26 22:34:55 250 384 35151 2457 -39 ENROUTE
2026-07-26 22:35:25 250 385 35155 2474 -39 ENROUTE
2026-07-26 22:35:55 249 385 35155 2492 -39 ENROUTE
2026-07-26 22:36:25 249 385 35156 2509 -40 ENROUTE
2026-07-26 22:36:55 249 385 35160 2527 -39 ENROUTE
2026-07-26 22:37:25 250 385 35148 2546 -39 ENROUTE
2026-07-26 22:37:55 250 385 35149 2564 -39 ENROUTE
2026-07-26 22:38:25 249 385 35149 2581 -39 ENROUTE
2026-07-26 22:38:55 249 386 35150 2598 -39 ENROUTE
2026-07-26 22:39:25 249 386 35150 2616 -39 ENROUTE
2026-07-26 22:39:55 250 386 35150 2635 -39 ENROUTE
2026-07-26 22:40:25 250 386 35135 2652 -39 ENROUTE
2026-07-26 22:40:55 250 385 35137 2670 -39 ENROUTE
2026-07-26 22:41:25 250 385 35139 2688 -39 ENROUTE
2026-07-26 22:41:55 249 385 35139 2705 -39 ENROUTE
2026-07-26 22:42:25 249 386 35144 2723 -39 ENROUTE
2026-07-26 22:42:55 251 386 35139 2740 -39 ENROUTE
2026-07-26 22:43:25 250 384 35115 2758 -39 ENROUTE
2026-07-26 22:43:55 250 384 35116 2775 -39 ENROUTE
2026-07-26 22:44:25 249 384 35119 2794 -39 ENROUTE
2026-07-26 22:44:55 250 384 35120 2812 -39 ENROUTE
2026-07-26 22:45:25 250 384 35116 2829 -39 ENROUTE
2026-07-26 22:45:55 249 384 35110 2846 -39 ENROUTE
2026-07-26 22:46:25 249 384 35106 2864 -39 ENROUTE
2026-07-26 22:46:55 250 384 35105 2881 -39 ENROUTE
2026-07-26 22:47:25 250 384 35113 2899 -39 ENROUTE
2026-07-26 22:47:55 250 385 35114 2918 -39 ENROUTE
2026-07-26 22:48:25 250 385 35118 2936 -39 ENROUTE
2026-07-26 22:48:55 249 385 35093 2953 -39 ENROUTE
2026-07-26 22:49:25 249 385 35092 2971 -39 ENROUTE
2026-07-26 22:49:55 249 385 35097 2988 -39 ENROUTE
2026-07-26 22:50:25 250 386 35097 3006 -39 ENROUTE
2026-07-26 22:50:55 250 385 35091 3024 -39 ENROUTE
2026-07-26 22:51:25 250 386 35104 3042 -39 ENROUTE
2026-07-26 22:51:55 250 385 35092 3060 -39 ENROUTE
2026-07-26 22:52:25 249 386 35092 3078 -39 ENROUTE
2026-07-26 22:52:55 249 386 35094 3096 -39 ENROUTE
2026-07-26 22:53:25 250 386 35093 3113 -39 ENROUTE
2026-07-26 22:53:55 249 386 35092 3131 -39 ENROUTE
2026-07-26 22:54:25 249 386 35090 3149 -39 ENROUTE
2026-07-26 22:54:55 250 386 35081 3167 -39 ENROUTE
2026-07-26 22:55:25 250 385 35085 3185 -39 ENROUTE
2026-07-26 22:55:55 249 385 35083 3202 -39 ENROUTE
2026-07-26 22:56:25 249 385 35083 3220 -39 ENROUTE
2026-07-26 22:56:55 250 386 35086 3237 -39 ENROUTE
2026-07-26 22:57:25 249 385 35086 3255 -39 ENROUTE
2026-07-26 22:57:55 249 386 35088 3273 -39 ENROUTE
2026-07-26 22:58:25 250 387 35091 3291 -39 ENROUTE
2026-07-26 22:58:55 250 386 35091 3308 -39 ENROUTE
2026-07-26 22:59:25 249 386 35091 3326 -39 ENROUTE
2026-07-26 22:59:55 249 387 35094 3344 -39 ENROUTE
2026-07-26 23:00:25 250 387 35082 3362 -39 ENROUTE
2026-07-26 23:00:55 250 386 35081 3378 -39 ENROUTE
2026-07-26 23:01:25 249 386 35077 3396 -39 ENROUTE
2026-07-26 23:01:55 249 386 35076 3415 -39 ENROUTE
2026-07-26 23:02:25 249 386 35084 3432 -39 ENROUTE
2026-07-26 23:02:55 249 386 35080 3450 -39 ENROUTE
2026-07-26 23:03:25 250 386 35068 3468 -39 ENROUTE
2026-07-26 23:03:55 249 386 35067 3486 -39 ENROUTE
2026-07-26 23:04:25 249 386 35066 3503 -39 ENROUTE
2026-07-26 23:04:55 249 387 35080 3520 -39 ENROUTE
2026-07-26 23:05:25 249 387 35085 3538 -39 ENROUTE
2026-07-26 23:05:55 250 387 35059 3557 -39 ENROUTE
2026-07-26 23:06:25 250 387 35061 3575 -39 ENROUTE
2026-07-26 23:06:55 249 387 35061 3592 -39 ENROUTE
2026-07-26 23:07:25 249 387 35060 3610 -39 ENROUTE
2026-07-26 23:07:55 249 388 35062 3628 -39 ENROUTE
2026-07-26 23:08:25 250 387 35049 3646 -39 ENROUTE
2026-07-26 23:08:55 250 387 35042 3662 -39 ENROUTE
2026-07-26 23:09:25 249 386 35041 3680 -39 ENROUTE
2026-07-26 23:09:55 249 386 35042 3699 -39 ENROUTE
2026-07-26 23:10:25 250 387 35040 3716 -39 ENROUTE
2026-07-26 23:10:55 250 386 35040 3734 -39 ENROUTE
2026-07-26 23:11:25 250 384 35020 3752 -39 ENROUTE
2026-07-26 23:11:55 250 383 35022 3769 -39 ENROUTE
2026-07-26 23:12:25 249 383 35027 3786 -39 ENROUTE
2026-07-26 23:12:55 250 384 35029 3804 -39 ENROUTE
2026-07-26 23:13:25 250 384 35031 3822 -39 ENROUTE
2026-07-26 23:13:55 250 383 35005 3839 -38 ENROUTE
2026-07-26 23:14:25 250 381 35002 3857 -39 ENROUTE
2026-07-26 23:14:55 248 382 35016 3875 -39 ENROUTE
2026-07-26 23:15:25 250 383 35019 3894 -39 ENROUTE
2026-07-26 23:15:55 250 382 35020 3910 -39 ENROUTE
2026-07-26 23:16:25 252 382 35005 3928 -39 ENROUTE
2026-07-26 23:16:55 250 378 34991 3945 -39 ENROUTE
2026-07-26 23:17:25 249 378 34995 3963 -39 ENROUTE
2026-07-26 23:17:55 250 379 34994 3980 -39 ENROUTE
2026-07-26 23:18:25 250 379 34996 3999 -39 ENROUTE
2026-07-26 23:18:55 250 379 34997 4017 -39 ENROUTE
2026-07-26 23:19:25 250 376 34984 4032 -39 ENROUTE
2026-07-26 23:19:55 249 375 34988 4050 -39 ENROUTE
2026-07-26 23:20:25 250 375 34986 4069 -39 ENROUTE
2026-07-26 23:20:55 250 375 34986 4086 -39 ENROUTE
2026-07-26 23:21:25 249 374 34984 4103 -39 ENROUTE
2026-07-26 23:21:55 250 374 34979 4122 -39 ENROUTE
2026-07-26 23:22:25 250 373 34979 4139 -39 ENROUTE
2026-07-26 23:22:55 250 373 34979 4156 -39 ENROUTE
2026-07-26 23:23:25 250 372 34982 4174 -39 ENROUTE
2026-07-26 23:23:55 249 372 34983 4192 -39 ENROUTE
2026-07-26 23:24:25 249 373 34984 4209 -39 ENROUTE
2026-07-26 23:24:55 259 386 34732 4229 -39 DESCENT
2026-07-26 23:25:25 262 387 34235 4246 -38 DESCENT
2026-07-26 23:25:55 265 387 33740 4262 -38 DESCENT
2026-07-26 23:26:25 268 388 33243 4279 -37 DESCENT
2026-07-26 23:26:55 272 389 32746 4297 -37 DESCENT
2026-07-26 23:27:25 274 388 32251 4313 -36 DESCENT
2026-07-26 23:27:55 277 389 31755 4332 -35 DESCENT
2026-07-26 23:28:25 279 389 31257 4350 -35 DESCENT
2026-07-26 23:28:55 282 388 30759 4369 -34 DESCENT
2026-07-26 23:29:25 281 386 30262 4388 -33 DESCENT
2026-07-26 23:29:55 281 385 29764 4406 -32 DESCENT
2026-07-26 23:30:25 281 384 29268 4425 -31 DESCENT
2026-07-26 23:30:55 281 383 28767 4443 -30 DESCENT
2026-07-26 23:31:25 281 382 28270 4462 -29 DESCENT
2026-07-26 23:31:55 281 381 27773 4482 -28 DESCENT
2026-07-26 23:32:25 281 380 27274 4502 -27 DESCENT
2026-07-26 23:32:55 281 380 26775 4523 -26 DESCENT
2026-07-26 23:33:25 281 379 26277 4542 -25 DESCENT
2026-07-26 23:33:55 281 379 25779 4563 -24 DESCENT
2026-07-26 23:34:25 281 378 25281 4584 -23 DESCENT
2026-07-26 23:34:55 281 378 24782 4607 -22 DESCENT
2026-07-26 23:35:25 280 378 24282 4629 -21 DESCENT
2026-07-26 23:35:55 281 377 23783 4651 -19 DESCENT
2026-07-26 23:36:25 281 375 23285 4674 -18 DESCENT
2026-07-26 23:36:55 281 374 22788 4697 -17 DESCENT
2026-07-26 23:37:25 281 372 22290 4718 -16 DESCENT
2026-07-26 23:37:55 281 371 21790 4740 -15 DESCENT
2026-07-26 23:38:25 281 369 21291 4763 -14 DESCENT
2026-07-26 23:38:55 281 367 20793 4787 -13 DESCENT
2026-07-26 23:39:25 281 365 20295 4809 -12 DESCENT
2026-07-26 23:39:55 281 364 19795 4834 -11 DESCENT
2026-07-26 23:40:25 281 363 19297 4858 -9 DESCENT
2026-07-26 23:40:55 281 361 18798 4882 -8 DESCENT
2026-07-26 23:41:25 281 360 18300 4904 -7 DESCENT
2026-07-26 23:41:55 281 357 17801 4927 -6 DESCENT
2026-07-26 23:42:25 281 355 17302 4950 -5 DESCENT
2026-07-26 23:42:55 281 352 16805 4973 -4 DESCENT
2026-07-26 23:43:25 281 350 16305 4995 -3 DESCENT
2026-07-26 23:43:55 281 348 15808 5018 -2 DESCENT
2026-07-26 23:44:25 281 346 15308 5041 -1 DESCENT
2026-07-26 23:44:55 281 344 14809 5064 0 DESCENT
2026-07-26 23:45:25 262 318 14322 5069 0 DESCENT
2026-07-26 23:45:55 249 300 13837 5077 1 DESCENT
2026-07-26 23:46:25 249 299 13340 5094 1 DESCENT
2026-07-26 23:46:55 249 297 12841 5112 2 DESCENT
2026-07-26 23:47:25 249 295 12344 5129 3 DESCENT
2026-07-26 23:47:55 249 293 11846 5146 3 DESCENT
2026-07-26 23:48:25 249 291 11445 5163 4 ENROUTE
2026-07-26 23:48:55 249 291 11424 5189 4 ENROUTE
2026-07-26 23:49:25 249 290 11424 5214 4 ENROUTE
2026-07-26 23:49:55 249 290 11423 5241 4 ENROUTE
2026-07-26 23:50:25 249 291 11424 5267 4 ENROUTE
2026-07-26 23:50:55 249 291 11425 5293 4 ENROUTE
2026-07-26 23:51:25 249 290 11423 5319 4 ENROUTE
2026-07-26 23:51:55 249 290 11422 5343 4 ENROUTE
2026-07-26 23:52:25 249 289 11420 5369 4 ENROUTE
2026-07-26 23:52:55 249 289 11420 5395 4 ENROUTE
2026-07-26 23:53:25 249 289 11420 5421 4 ENROUTE
2026-07-26 23:53:55 249 290 11422 5447 4 ENROUTE
2026-07-26 23:54:25 249 290 11421 5472 4 ENROUTE
2026-07-26 23:54:55 249 289 11421 5498 4 ENROUTE
2026-07-26 23:55:25 249 289 11400 5523 4 DESCENT
2026-07-26 23:55:55 237 274 10936 5532 4 DESCENT
2026-07-26 23:56:25 225 259 10446 5537 5 DESCENT
2026-07-26 23:56:55 216 247 9954 5542 6 DESCENT
2026-07-26 23:57:25 208 237 9461 5547 7 DESCENT
2026-07-26 23:57:55 204 229 8963 5552 8 DESCENT
2026-07-26 23:58:25 199 222 8466 5558 9 DESCENT
2026-07-26 23:58:55 195 217 7968 5562 10 DESCENT
2026-07-26 23:59:25 191 212 7469 5567 11 DESCENT
2026-07-26 23:59:55 188 208 6969 5573 12 DESCENT
2026-07-27 00:00:25 186 205 6473 5578 13 DESCENT
2026-07-27 00:00:55 184 202 5973 5584 14 DESCENT
2026-07-27 00:01:25 183 200 5474 5590 15 DESCENT
2026-07-27 00:01:55 176 192 5240 5600 16 ENROUTE
2026-07-27 00:02:25 176 193 5238 5624 16 ENROUTE
2026-07-27 00:02:55 177 194 5238 5649 16 ENROUTE
2026-07-27 00:03:25 156 170 5275 5673 16 ENROUTE
2026-07-27 00:03:55 122 133 5246 5691 16 ENROUTE
2026-07-27 00:04:25 127 139 5245 5726 16 ENROUTE
2026-07-27 00:04:55 129 142 5239 5759 16 ENROUTE
2026-07-27 00:05:25 130 142 5237 5794 16 ENROUTE
2026-07-27 00:05:55 130 143 5240 5828 16 ENROUTE
2026-07-27 00:06:25 130 143 5238 5860 16 ENROUTE
2026-07-27 00:06:55 130 143 5240 5894 16 ENROUTE
2026-07-27 00:07:25 130 143 5235 5927 16 ENROUTE
2026-07-27 00:07:55 130 144 5239 5962 16 ENROUTE
2026-07-27 00:08:25 130 143 5235 5995 16 ENROUTE
2026-07-27 00:08:55 130 143 5238 6028 16 ENROUTE
2026-07-27 00:09:25 130 143 5236 6060 16 ENROUTE
2026-07-27 00:09:55 130 144 5235 6093 16 ENROUTE
2026-07-27 00:10:25 130 143 5237 6127 16 ENROUTE
2026-07-27 00:10:55 130 143 5240 6160 16 ENROUTE
2026-07-27 00:11:25 130 143 5239 6193 16 ENROUTE
2026-07-27 00:11:55 131 144 4763 6213 17 APPROACH
2026-07-27 00:12:25 130 142 4276 6230 18 APPROACH
2026-07-27 00:12:55 130 142 4216 6261 18 APPROACH
2026-07-27 00:13:25 130 142 4215 6295 18 APPROACH
2026-07-27 00:13:55 130 142 4217 6329 18 APPROACH
2026-07-27 00:14:25 130 142 4217 6362 18 APPROACH
2026-07-27 00:14:55 130 142 4216 6396 18 APPROACH
2026-07-27 00:15:25 130 142 4218 6429 18 APPROACH
2026-07-27 00:15:55 130 142 4218 6464 18 ENROUTE
2026-07-27 00:16:25 130 141 4216 6497 18 ENROUTE
2026-07-27 00:16:55 130 139 4217 6530 18 ENROUTE
2026-07-27 00:17:25 129 137 4213 6563 18 ENROUTE
2026-07-27 00:17:55 130 137 3980 6592 19 APPROACH
2026-07-27 00:18:25 130 137 3862 6623 19 APPROACH
2026-07-27 00:18:55 130 137 3582 6649 20 APPROACH
2026-07-27 00:19:25 130 136 3161 6670 21 APPROACH
2026-07-27 00:19:55 130 136 2802 6692 21 APPROACH
2026-07-27 00:20:25 130 136 2408 6713 18 ON FINAL
2026-07-27 00:20:55 130 136 2061 6737 17 ON FINAL
2026-07-27 00:21:25 72 74 1830 6755 17 ON FINAL
2026-07-27 00:21:55 8 9 1830 6770 17 TAXI TO APRON
2026-07-27 00:22:25 11 12 1830 6775 17 TAXI TO APRON
2026-07-27 00:22:55 14 15 1830 6780 17 TAXI TO APRON
2026-07-27 00:23:25 14 14 1829 6785 17 TAXI TO APRON
2026-07-27 00:23:55 11 12 1830 6791 17 TAXI TO APRON
2026-07-27 00:24:25 14 15 1830 6797 17 TAXI TO APRON
2026-07-27 00:24:55 14 15 1830 6803 17 TAXI TO APRON
2026-07-27 00:25:25 6 7 1829 6808 17 TAXI TO APRON
2026-07-27 00:25:55 8 9 1830 6813 17 TAXI TO APRON
2026-07-27 00:26:25 3 3 1830 6819 17 TAXI TO APRON
2026-07-27 00:26:55 0 0 1830 6825 17 TAXI TO APRON
2026-07-27 00:27:25 0 0 1830 6831 17 TAXI TO APRON
2026-07-27 00:27:55 0 0 1830 6837 17 TAXI TO APRON
2026-07-27 00:28:25 0 0 1830 6842 17 TAXI TO APRON
  • Join our VA!

    It has been 11 years of great learning, friendships, and stories.

  • Sign up now!